Wolf Creek Observed Data For Previous 48 Hours

Caption
Day and Hour Reservoir Elevation (behind dam)* Tailwater Elevation (below dam)* Average Hourly Discharge*
8/21/2016 1 AM CDT 710.63 547.43 20
8/21/2016 2 AM CDT 710.63 546.13 20
8/21/2016 3 AM CDT 710.63 545.33 20
8/21/2016 4 AM CDT 710.63 544.63 20
8/21/2016 5 AM CDT 710.63 543.93 20
8/21/2016 6 AM CDT 710.63 543.53 20
8/21/2016 7 AM CDT 710.60 543.10 20
8/21/2016 8 AM CDT 710.60 542.70 20
8/21/2016 9 AM CDT 710.60 542.50 20
8/21/2016 10 AM CDT 710.65 542.25 20
8/21/2016 11 AM CDT 710.65 545.15 3,530
8/21/2016 12 PM CDT 710.65 548.25 7,120
8/21/2016 1 PM CDT 710.65 552.15 14,500
8/21/2016 2 PM CDT 710.65 554.55 18,770
8/21/2016 3 PM CDT 710.65 555.45 18,920
8/21/2016 4 PM CDT 710.65 556.75 19,120
8/21/2016 5 PM CDT 710.60 557.10 19,120
8/21/2016 6 PM CDT 710.60 557.40 19,270
8/21/2016 7 PM CDT 710.57 557.97 19,270
8/21/2016 8 PM CDT 710.55 558.15 19,470
8/21/2016 9 PM CDT 710.53 556.83 15,300
8/21/2016 10 PM CDT 710.50 554.70 11,270
8/21/2016 11 PM CDT 710.48 551.68 3,640
8/22/2016 12 AM CDT 710.46 549.86 20
8/22/2016 1 AM CDT 710.46 546.36 20
8/22/2016 2 AM CDT 710.46 545.86 20
8/22/2016 3 AM CDT 710.46 545.36 20
8/22/2016 4 AM CDT 710.46 544.96 20
8/22/2016 5 AM CDT 710.46 544.66 20
8/22/2016 6 AM CDT 710.46 543.96 20
8/22/2016 7 AM CDT 710.46 543.06 20
8/22/2016 8 AM CDT 710.46 542.76 20
8/22/2016 9 AM CDT 710.46 542.46 20
8/22/2016 10 AM CDT 710.48 545.48 3,550
8/22/2016 11 AM CDT 710.50 550.70 10,730
8/22/2016 12 PM CDT 710.50 551.40 10,880
8/22/2016 1 PM CDT 710.45 554.95 18,770
8/22/2016 2 PM CDT 710.45 555.75 18,920
8/22/2016 3 PM CDT 710.45 556.65 19,120
8/22/2016 4 PM CDT 710.40 556.90 19,120
8/22/2016 5 PM CDT 710.40 557.20 19,270
8/22/2016 6 PM CDT 710.40 557.50 19,270
8/22/2016 7 PM CDT 710.40 557.80 19,270
8/22/2016 8 PM CDT 710.35 558.05 19,470
8/22/2016 9 PM CDT 710.35 558.05 19,470
8/22/2016 10 PM CDT 710.30 555.00 11,360
8/22/2016 11 PM CDT 710.30 552.10 3,690
8/23/2016 12 AM CDT 710.30 550.00 3,590
8/23/2016 1 AM CDT 710.30 547.60 20
8/23/2016 2 AM CDT 710.30 545.50 20
8/23/2016 3 AM CDT 710.30 544.80 20
8/23/2016 4 AM CDT 710.28 544.48 20
8/23/2016 5 AM CDT 710.28 544.28 20
8/23/2016 6 AM CDT 710.28 544.08 20
8/23/2016 7 AM CDT 710.25 543.35 20
8/23/2016 8 AM CDT 710.25 542.85 20
8/23/2016 9 AM CDT 710.25 542.35 20
8/23/2016 10 AM CDT 710.25 547.95 7,120
8/23/2016 11 AM CDT 710.25 549.05 7,140
8/23/2016 12 PM CDT 710.25 554.65 15,020
8/23/2016 1 PM CDT 710.25 555.05 15,140
8/23/2016 2 PM CDT 710.25 557.65 23,120
8/23/2016 3 PM CDT 710.20 558.40 23,360
8/23/2016 4 PM CDT 710.20 558.90 23,600
8/23/2016 5 PM CDT 710.20 559.20 23,600
8/23/2016 6 PM CDT 710.15 559.65 23,600

Elevations are in feet above sea level. Discharges are in cubic feet per second and are reported at the end of the hour.